Washington, OH (43749)

7:48 PM EST on February 26, 2015 (GMT -0500)
Heller Drive | Change Station
CLOSE
Current Station
Personal Weather Station
Location: Newcomerstown, OH
Elevation: 792 ft
Nearby Weather Stations

Elev 792 ft 40.27 °N, 81.61 °W | Updated 0 second ago

Overcast
Overcast
14.2 °F
Feels Like 14 °F
N
2.0
Wind Variable Wind from NW
Gusts 11.0 mph

Today
High -- | Low -- °F
--% Chance of Precip.
Yesterday
High -- | Low -- °F
Precip. -- in
7:04 AM 6:14 PM
Waxing Gibbous, 63% visible
Pressure 30.20 in
Visibility 2.0 miles
Clouds Few 2300 ft
Overcast 3100 ft
Windchill 14 °F
Dew Point 8 °F
Humidity 76%
Rainfall 0.00 in
Snow Depth Not available.
UV 0 out of 12
Pollen .50 out of 12
Air Quality Not available.
Flu Activity Not available.
SPECI KPHD 270045Z AUTO 33009KT 2SM -SN FEW023 OVC031 M09/M14 A3020 RMK AO2 SNB32 P0000 T10941144

More Conditions Fewer Conditions

Pressure 30.20 in
Visibility 2.0 miles
Clouds Few 2300 ft
Overcast 3100 ft
Windchill 14 °F
Dew Point 8 °F
Humidity 76%
Rainfall 0.00 in
Snow Depth Not available.
UV 0 out of 12
Pollen .50 out of 12
Air Quality Not available.
Flu Activity Not available.
SPECI KPHD 270045Z AUTO 33009KT 2SM -SN FEW023 OVC031 M09/M14 A3020 RMK AO2 SNB32 P0000 T10941144

More Conditions Fewer Conditions

10-Day Weather Forecast

Almanac

Astronomy

Feb. 26, 2015 Rise Set
Actual Time
Civil Twilight
Nautical Twilight
Astronomical Twilight
Moon
Length of Visible Light
Length of Day
Tomorrow will be .
, % of the Moon is Illuminated

Today's Extremes

State Highs State Lows

Community

WunderPhotos

Upload Photos

1,800,548 photos uploaded!

WunderBlogs® & News

Nearby

Air Quality

  Air Quality AQ Index Pollutant
Not available.

Snow Depth

Station Depth Elevation

Earthquake Activity

City Distance Mag. Time & Date
Minimum magnitude displayed is 2.5.

Coastal Water Temperatures

Place Temperature

Nearby Weather Stations